Time;durP1;ratioP1;P1;durP2;ratioP2;P2;SDS_P1;SDS_P2;PMS_P1;PMS_P2;Temp;Humidity;BMP_temperature;BMP_pressure;BME280_temperature;BME280_humidity;BME280_pressure;Samples;Min_cycle;Max_cycle;Signal;HPM_P1;HPM_P2
2023/05/23 00:01:07;;;;;;;27.10;11.38;;;;;;;;;;4996116;28;20038;-59
2023/05/23 00:03:34;;;;;;;24.00;10.38;;;;;;;;;;4987848;28;20152;-59
2023/05/23 00:06:01;;;;;;;23.50;10.57;;;;;;;;;;4995585;28;20117;-59
2023/05/23 00:08:27;;;;;;;25.50;11.52;;;;;;;;;;4990609;28;20046;-59
2023/05/23 00:10:53;;;;;;;23.80;11.50;;;;;;;;;;4988495;28;20048;-59
2023/05/23 00:13:19;;;;;;;23.10;10.02;;;;;;;;;;4989603;28;20038;-59
2023/05/23 00:15:47;;;;;;;18.45;9.85;;;;;;;;;;4997257;28;20050;-59
2023/05/23 00:18:14;;;;;;;21.67;9.43;;;;;;;;;;4975282;28;20949;-59
2023/05/23 00:20:41;;;;;;;19.60;10.15;;;13.20;1.00;;;;;;4978958;28;20133;-59
2023/05/23 00:23:17;;;;;;;20.92;10.30;;;;;;;;;;4996689;28;20778;-58
2023/05/23 00:25:47;;;;;;;24.55;10.93;;;;;;;;;;4997222;28;20204;-58
2023/05/23 00:28:13;;;;;;;21.58;9.90;;;;;;;;;;4972670;28;20781;-59
2023/05/23 00:30:39;;;;;;;21.20;10.45;;;;;;;;;;4986909;28;20045;-58
2023/05/23 00:33:06;;;;;;;20.08;10.25;;;;;;;;;;4996629;28;20467;-58
2023/05/23 00:35:32;;;;;;;30.33;10.75;;;;;;;;;;4995796;28;20855;-63
2023/05/23 00:37:58;;;;;;;21.48;9.35;;;;;;;;;;4972782;28;20575;-59
2023/05/23 00:40:24;;;;;;;19.45;9.48;;;;;;;;;;4985829;28;20721;-59
2023/05/23 00:42:50;;;;;;;19.60;10.30;;;;;;;;;;4993531;28;20103;-59
2023/05/23 00:45:16;;;;;;;24.67;9.95;;;;;;;;;;4995101;28;20049;-57
2023/05/23 00:47:42;;;;;;;21.60;10.00;;;;;;;;;;4995244;28;20049;-59
2023/05/23 00:50:10;;;;;;;21.73;10.38;;;;;;;;;;4976704;28;20045;-59
2023/05/23 00:52:37;;;;;;;21.15;10.13;;;;;;;;;;4993647;28;20953;-58
2023/05/23 00:55:03;;;;;;;22.23;9.05;;;;;;;;;;4995065;28;20093;-59
2023/05/23 00:57:29;;;;;;;21.45;8.95;;;;;;;;;;4994250;28;20496;-58
2023/05/23 00:59:55;;;;;;;18.40;9.45;;;;;;;;;;4991916;28;20077;-59
2023/05/23 01:02:22;;;;;;;24.88;11.18;;;;;;;;;;4994630;28;20046;-59
2023/05/23 01:04:55;;;;;;;22.85;10.07;;;;;;;;;;4995306;28;20839;-59
2023/05/23 01:07:21;;;;;;;18.48;10.32;;;;;;;;;;4995830;28;20092;-57
2023/05/23 01:09:48;;;;;;;25.63;9.85;;;;;;;;;;4995330;28;20049;-59
2023/05/23 01:12:24;;;;;;;22.65;10.00;;;;;;;;;;4993496;28;20136;-58
2023/05/23 01:14:59;;;;;;;24.45;9.23;;;;;;;;;;4995453;28;20504;-59
2023/05/23 01:17:43;;;;;;;25.17;10.27;;;;;;;;;;4991108;28;20041;-59
2023/05/23 01:20:16;;;;;;;18.30;9.50;;;;;;;;;;4993441;28;20053;-59
2023/05/23 01:22:54;;;;;;;20.73;8.93;;;;;;;;;;4995159;28;20507;-59
2023/05/23 01:25:24;;;;;;;20.02;8.70;;;;;;;;;;4996246;28;20069;-59
2023/05/23 01:27:57;;;;;;;19.60;7.97;;;;;;;;;;4977328;28;20048;-58
2023/05/23 01:30:24;;;;;;;21.42;8.13;;;;;;;;;;4994036;28;20041;-59
2023/05/23 01:32:54;;;;;;;20.50;9.15;;;13.20;99.90;;;;;;4993665;28;20092;-59
2023/05/23 01:35:24;;;;;;;18.73;8.55;;;;;;;;;;4988649;28;20567;-59
2023/05/23 01:37:50;;;;;;;16.52;8.18;;;;;;;;;;4995071;28;20821;-59
2023/05/23 01:40:16;;;;;;;21.67;8.48;;;;;;;;;;4989897;28;20042;-59
2023/05/23 01:42:42;;;;;;;19.45;8.07;;;;;;;;;;4991950;28;20042;-59
2023/05/23 01:45:09;;;;;;;19.35;6.97;;;;;;;;;;4995180;28;20045;-58
2023/05/23 01:47:35;;;;;;;15.85;7.28;;;;;;;;;;4993606;28;20623;-58
2023/05/23 01:50:02;;;;;;;16.98;7.57;;;;;;;;;;4992327;28;20046;-58
2023/05/23 01:52:28;;;;;;;16.05;7.28;;;;;;;;;;4993188;28;20507;-59
2023/05/23 01:54:55;;;;;;;16.23;7.22;;;;;;;;;;4991859;28;20551;-58
2023/05/23 01:57:22;;;;;;;22.75;7.22;;;;;;;;;;4992826;28;20042;-58
2023/05/23 01:59:48;;;;;;;16.75;7.25;;;;;;;;;;4995177;28;20073;-59
2023/05/23 02:02:14;;;;;;;18.25;6.55;;;;;;;;;;4990492;28;20038;-58
2023/05/23 02:04:40;;;;;;;25.35;8.00;;;;;;;;;;4988623;28;20551;-60
2023/05/23 02:07:06;;;;;;;22.13;9.13;;;;;;;;;;4971152;28;20053;-61
2023/05/23 02:09:32;;;;;;;16.20;7.10;;;;;;;;;;4996041;28;20096;-60
2023/05/23 02:11:58;;;;;;;16.08;7.28;;;;;;;;;;4998003;28;20444;-60
2023/05/23 02:14:25;;;;;;;17.95;7.15;;;;;;;;;;4996739;28;20049;-60
2023/05/23 02:16:51;;;;;;;21.45;8.20;;;;;;;;;;4981925;28;20393;-60
2023/05/23 02:19:17;;;;;;;18.02;7.07;;;;;;;;;;4997554;28;20038;-60
2023/05/23 02:21:43;;;;;;;18.05;7.30;;;;;;;;;;4994986;28;20046;-58
2023/05/23 02:24:10;;;;;;;16.70;7.10;;;;;;;;;;4992951;28;20416;-59
2023/05/23 02:26:36;;;;;;;19.88;7.05;;;;;;;;;;4996188;28;20559;-58
2023/05/23 02:29:02;;;;;;;20.67;7.22;;;;;;;;;;4988254;28;20120;-57
2023/05/23 02:31:28;;;;;;;17.30;6.72;;;;;;;;;;4974509;28;20050;-58
2023/05/23 02:33:54;;;;;;;18.80;7.35;;;;;;;;;;4996289;28;20049;-59
2023/05/23 02:36:20;;;;;;;18.25;7.03;;;;;;;;;;4991021;28;20042;-58
2023/05/23 02:38:46;;;;;;;14.27;6.03;;;;;;;;;;4998832;28;20046;-58
2023/05/23 02:41:12;;;;;;;16.60;6.95;;;;;;;;;;4996406;28;20048;-59
2023/05/23 02:43:38;;;;;;;19.55;6.78;;;;;;;;;;4997179;28;20406;-59
2023/05/23 02:46:04;;;;;;;14.20;5.75;;;;;;;;;;4998061;28;20042;-58
2023/05/23 02:48:30;;;;;;;18.67;6.93;;;;;;;;;;4996842;28;20799;-59
2023/05/23 02:50:56;;;;;;;17.38;6.38;;;;;;;;;;4993228;28;20047;-58
2023/05/23 02:53:22;;;;;;;17.85;5.70;;;;;;;;;;4984325;28;20546;-59
2023/05/23 02:55:48;;;;;;;17.83;6.70;;;;;;;;;;4998827;28;20046;-58
2023/05/23 02:58:15;;;;;;;15.05;6.70;;;;;;;;;;4988754;28;20042;-58
2023/05/23 03:00:42;;;;;;;14.77;5.05;;;;;;;;;;4976005;28;20455;-58
2023/05/23 03:03:08;;;;;;;16.88;5.82;;;;;;;;;;4994106;28;20073;-59
2023/05/23 03:05:35;;;;;;;13.73;4.50;;;;;;;;;;4998910;28;20061;-59
2023/05/23 03:08:01;;;;;;;12.75;6.40;;;;;;;;;;4993433;28;20045;-58
2023/05/23 03:10:27;;;;;;;13.07;4.85;;;;;;;;;;4988773;28;20509;-59
2023/05/23 03:12:53;;;;;;;16.55;5.70;;;;;;;;;;4994540;28;20116;-59
2023/05/23 03:15:19;;;;;;;14.77;5.25;;;;;;;;;;4989477;28;20050;-60
2023/05/23 03:17:45;;;;;;;15.40;5.70;;;;;;;;;;4997974;28;20042;-56
2023/05/23 03:20:11;;;;;;;16.70;5.80;;;;;;;;;;4989393;28;20053;-59
2023/05/23 03:22:37;;;;;;;10.27;4.65;;;;;;;;;;4990791;28;20611;-57
2023/05/23 03:25:04;;;;;;;14.52;5.13;;;;;;;;;;4998091;28;20585;-59
2023/05/23 03:27:30;;;;;;;13.60;4.40;;;;;;;;;;4992496;28;20052;-57
2023/05/23 03:29:56;;;;;;;15.43;5.30;;;;;;;;;;4992909;28;20681;-57
2023/05/23 03:32:22;;;;;;;17.98;5.32;;;;;;;;;;4988450;28;20128;-58
2023/05/23 03:34:48;;;;;;;15.63;5.20;;;;;;;;;;4998256;28;20037;-57
2023/05/23 03:37:14;;;;;;;13.43;5.15;;;;;;;;;;4994513;28;20394;-58
2023/05/23 03:39:40;;;;;;;13.35;4.45;;;;;;;;;;4991378;28;20788;-57
2023/05/23 03:42:06;;;;;;;14.57;3.95;;;;;;;;;;4986715;28;20412;-58
2023/05/23 03:44:32;;;;;;;11.00;4.70;;;;;;;;;;4992903;28;20045;-58
2023/05/23 03:46:58;;;;;;;16.30;6.18;;;;;;;;;;4996454;28;20045;-59
2023/05/23 03:49:24;;;;;;;15.73;4.70;;;;;;;;;;4992186;28;20045;-58
2023/05/23 03:51:50;;;;;;;17.02;5.28;;;;;;;;;;4980195;28;20062;-56
2023/05/23 03:54:17;;;;;;;12.50;4.50;;;;;;;;;;4975259;28;20077;-57
2023/05/23 03:56:43;;;;;;;14.93;4.55;;;;;;;;;;4986925;28;20041;-58
2023/05/23 03:59:09;;;;;;;12.85;4.50;;;;;;;;;;4981701;28;20073;-59
2023/05/23 04:01:35;;;;;;;14.77;4.43;;;;;;;;;;4977951;28;20046;-58
2023/05/23 04:04:01;;;;;;;14.55;5.22;;;;;;;;;;4980381;28;20100;-58
2023/05/23 04:06:30;;;;;;;14.48;5.10;;;;;;;;;;4996365;28;20125;-58
2023/05/23 04:08:56;;;;;;;16.55;5.63;;;;;;;;;;4997397;28;20060;-57
2023/05/23 04:11:22;;;;;;;14.82;4.68;;;;;;;;;;4994848;28;20052;-59
2023/05/23 04:13:50;;;;;;;13.88;4.47;;;;;;;;;;4987488;28;20237;-56
2023/05/23 04:16:16;;;;;;;13.68;4.47;;;;;;;;;;4985488;28;20049;-57
2023/05/23 04:18:45;;;;;;;12.57;4.68;;;;;;;;;;4994318;28;20126;-58
2023/05/23 04:21:11;;;;;;;15.75;5.53;;;;;;;;;;4995239;28;20042;-56
2023/05/23 04:23:38;;;;;;;17.17;5.50;;;;;;;;;;4997563;28;20644;-58
2023/05/23 04:26:04;;;;;;;15.93;6.20;;;;;;;;;;4991699;28;20050;-56
2023/05/23 04:28:31;;;;;;;14.63;5.63;;;;;;;;;;4997213;28;20356;-58
2023/05/23 04:30:57;;;;;;;14.80;5.20;;;;;;;;;;4993288;28;20069;-58
2023/05/23 04:33:23;;;;;;;16.05;5.88;;;;;;;;;;4993990;28;20069;-59
2023/05/23 04:35:50;;;;;;;15.48;5.55;;;;;;;;;;4997586;28;20038;-60
2023/05/23 04:38:16;;;;;;;18.38;7.10;;;;;;;;;;4998785;28;20076;-58
2023/05/23 04:40:42;;;;;;;17.50;5.90;;;;;;;;;;4992449;28;20125;-58
2023/05/23 04:43:09;;;;;;;13.27;5.93;;;;;;;;;;4989571;28;20878;-59
2023/05/23 04:45:40;;;;;;;10.02;5.20;;;;;;;;;;4997467;28;20078;-59
2023/05/23 04:48:06;;;;;;;11.65;5.43;;;;;;;;;;4986418;28;21077;-59
2023/05/23 04:50:34;;;;;;;12.77;4.78;;;;;;;;;;4992208;28;20057;-58
2023/05/23 04:53:00;;;;;;;13.38;4.85;;;;;;;;;;4985198;28;20389;-58
2023/05/23 04:55:26;;;;;;;14.57;5.75;;;;;;;;;;4988336;28;20050;-57
2023/05/23 04:57:52;;;;;;;11.02;5.22;;;;;;;;;;4994592;28;20049;-58
2023/05/23 05:00:19;;;;;;;15.13;5.47;;;;;;;;;;4995218;28;20052;-59
2023/05/23 05:02:45;;;;;;;8.98;3.80;;;;;;;;;;4993369;28;20648;-58
2023/05/23 05:05:11;;;;;;;13.60;4.50;;;;;;;;;;4994286;28;20121;-59
2023/05/23 05:07:38;;;;;;;12.75;4.20;;;;;;;;;;4987396;28;20070;-58
2023/05/23 05:10:04;;;;;;;13.57;5.18;;;;;;;;;;4961417;28;20057;-59
2023/05/23 05:12:30;;;;;;;12.77;4.65;;;;;;;;;;4988694;28;20037;-58
2023/05/23 05:14:56;;;;;;;10.30;4.05;;;;;;;;;;4996110;28;20103;-60
2023/05/23 05:17:23;;;;;;;13.13;4.43;;;;;;;;;;4990884;28;20056;-59
2023/05/23 05:19:49;;;;;;;8.70;4.07;;;;;;;;;;4985570;28;20046;-59
2023/05/23 05:22:15;;;;;;;12.77;4.07;;;;;;;;;;4987081;28;20038;-58
2023/05/23 05:24:42;;;;;;;9.88;4.35;;;;;;;;;;4991262;28;20042;-58
2023/05/23 05:27:10;;;;;;;11.23;3.75;;;;;;;;;;4996329;28;20111;-59
2023/05/23 05:29:36;;;;;;;16.20;4.20;;;;;;;;;;4995499;28;20049;-59
2023/05/23 05:32:03;;;;;;;12.02;4.28;;;;;;;;;;4996211;28;20144;-59
2023/05/23 05:34:29;;;;;;;13.45;4.28;;;;;;;;;;4995245;28;20041;-58
2023/05/23 05:36:55;;;;;;;17.60;4.05;;;;;;;;;;4987464;28;20096;-58
2023/05/23 05:39:24;;;;;;;10.60;3.58;;;;;;;;;;4988548;28;20041;-56
2023/05/23 05:41:50;;;;;;;14.27;3.70;;;;;;;;;;4995862;28;20618;-59
2023/05/23 05:44:16;;;;;;;16.35;4.60;;;;;;;;;;4987336;28;20084;-58
2023/05/23 05:46:43;;;;;;;12.30;4.22;;;;;;;;;;4989018;28;20045;-57
2023/05/23 05:49:09;;;;;;;18.25;4.97;;;;;;;;;;4978291;28;20124;-58
2023/05/23 05:51:35;;;;;;;16.77;4.20;;;;;;;;;;4992136;28;20046;-59
2023/05/23 05:54:01;;;;;;;18.25;4.88;;;;;;;;;;4995973;28;20070;-60
2023/05/23 05:56:27;;;;;;;13.38;4.40;;;;;;;;;;4994313;28;20057;-59
2023/05/23 05:58:53;;;;;;;12.73;4.03;;;;;;;;;;4990161;28;20116;-58
2023/05/23 06:01:19;;;;;;;12.40;4.65;;;;;;;;;;4982161;28;20052;-58
2023/05/23 06:03:45;;;;;;;16.75;4.22;;;;;;;;;;4995960;28;20095;-58
2023/05/23 06:06:11;;;;;;;21.15;5.72;;;;;;;;;;4995578;28;20076;-58
2023/05/23 06:08:38;;;;;;;13.48;3.92;;;;;;;;;;4991280;28;20161;-58
2023/05/23 06:11:04;;;;;;;15.07;4.43;;;;;;;;;;4994512;28;20104;-58
2023/05/23 06:13:30;;;;;;;11.95;3.85;;;;;;;;;;4988042;28;20188;-60
2023/05/23 06:15:57;;;;;;;16.27;4.45;;;;;;;;;;4995524;28;20046;-58
2023/05/23 06:18:23;;;;;;;14.70;5.07;;;;;;;;;;4994460;28;20176;-59
2023/05/23 06:20:49;;;;;;;17.08;4.85;;;;;;;;;;4995538;28;20038;-58
2023/05/23 06:23:15;;;;;;;16.33;4.22;;;;;;;;;;4994438;28;20057;-56
2023/05/23 06:25:41;;;;;;;19.60;3.85;;;;;;;;;;4995895;28;20571;-58
2023/05/23 06:28:08;;;;;;;16.65;4.18;;;;;;;;;;4995706;28;20053;-59
2023/05/23 06:30:35;;;;;;;19.27;5.20;;;;;;;;;;4993605;28;20377;-58
2023/05/23 06:33:01;;;;;;;16.83;5.28;;;;;;;;;;4995695;28;20037;-57
2023/05/23 06:35:27;;;;;;;14.85;4.30;;;;;;;;;;4995765;28;20050;-59
2023/05/23 06:37:53;;;;;;;18.77;3.72;;;;;;;;;;4995515;28;20038;-58
2023/05/23 06:40:19;;;;;;;15.07;3.85;;;;;;;;;;4993013;28;20045;-59
2023/05/23 06:42:46;;;;;;;15.02;4.32;;;;;;;;;;4995378;28;20451;-58
2023/05/23 06:45:12;;;;;;;15.57;4.32;;;;;;;;;;4995822;28;20046;-59
2023/05/23 06:47:42;;;;;;;16.52;4.40;;;;;;;;;;4995767;28;20561;-59
2023/05/23 06:50:08;;;;;;;15.27;4.10;;;;;;;;;;4995498;28;20042;-58
2023/05/23 06:52:34;;;;;;;14.80;4.22;;;;;;;;;;4996161;28;20054;-58
2023/05/23 06:55:00;;;;;;;16.58;4.18;;;;;;;;;;4995282;28;20132;-58
2023/05/23 06:57:26;;;;;;;21.90;5.45;;;;;;;;;;4996925;28;20060;-60
2023/05/23 06:59:53;;;;;;;18.33;4.25;;;;;;;;;;4992345;28;20225;-59
2023/05/23 07:02:19;;;;;;;23.20;6.03;;;;;;;;;;4997966;28;20049;-59
2023/05/23 07:04:45;;;;;;;16.17;4.68;;;;;;;;;;4998032;28;20041;-58
2023/05/23 07:07:11;;;;;;;15.55;3.20;;;;;;;;;;4998676;28;20042;-59
2023/05/23 07:09:38;;;;;;;15.95;3.78;;;;;;;;;;4989412;28;20396;-59
2023/05/23 07:12:04;;;;;;;18.02;4.22;;;;;;;;;;4992126;28;20034;-58
2023/05/23 07:14:30;;;;;;;15.90;4.43;;;;;;;;;;4998673;28;20554;-59
2023/05/23 07:16:56;;;;;;;20.13;4.90;;;;;;;;;;4998089;28;20195;-60
2023/05/23 07:19:22;;;;;;;19.10;4.10;;;;;;;;;;4997223;28;20133;-60
2023/05/23 07:21:48;;;;;;;14.07;4.38;;;;;;;;;;4993148;28;20085;-60
2023/05/23 07:24:14;;;;;;;19.20;5.15;;;;;;;;;;4993970;28;20491;-60
2023/05/23 07:26:40;;;;;;;19.48;4.53;;;;;;;;;;4997323;28;20461;-60
2023/05/23 07:29:06;;;;;;;14.70;3.55;;;;;;;;;;4997496;28;20191;-60
2023/05/23 07:31:32;;;;;;;12.88;3.72;;;;;;;;;;4997681;28;20045;-60
2023/05/23 07:33:58;;;;;;;13.23;3.47;;;;;;;;;;4996509;28;20046;-60
2023/05/23 07:36:24;;;;;;;15.48;4.18;;;;;;;;;;4993545;28;20038;-60
2023/05/23 07:38:52;;;;;;;14.70;3.72;;;;;;;;;;4991284;28;20451;-60
2023/05/23 07:41:18;;;;;;;18.20;3.60;;;;;;;;;;4996867;28;20054;-60
2023/05/23 07:43:44;;;;;;;20.23;4.18;;;;;;;;;;4998138;28;20038;-60
2023/05/23 07:46:10;;;;;;;16.35;4.32;;;;;;;;;;4998204;28;20115;-60
2023/05/23 07:48:36;;;;;;;17.23;4.95;;;;;;;;;;4989569;28;20108;-60
2023/05/23 07:51:02;;;;;;;14.60;4.55;;;;;;;;;;4997638;28;20038;-59
2023/05/23 07:53:28;;;;;;;14.80;4.20;;;;;;;;;;4997275;28;20445;-60
2023/05/23 07:55:55;;;;;;;13.40;3.55;;;;;;;;;;4993926;28;20050;-60
2023/05/23 07:58:22;;;;;;;11.95;4.07;;;;;;;;;;4992912;28;20048;-59
2023/05/23 08:00:49;;;;;;;16.35;3.97;;;;;;;;;;4995517;28;20427;-58
2023/05/23 08:03:16;;;;;;;20.88;4.45;;;;;;;;;;4989225;28;20042;-60
2023/05/23 08:05:42;;;;;;;17.25;3.92;;;;;;;;;;4986498;28;20057;-59
2023/05/23 08:08:08;;;;;;;15.90;3.70;;;;;;;;;;4984477;28;20034;-59
2023/05/23 08:10:34;;;;;;;13.57;3.88;;;;;;;;;;4993198;28;20393;-60
2023/05/23 08:13:05;;;;;;;15.45;3.83;;;;;;;;;;4991595;28;20402;-60
2023/05/23 08:15:31;;;;;;;16.85;4.63;;;;;;;;;;4991344;28;20468;-60
2023/05/23 08:17:57;;;;;;;16.20;4.20;;;;;;;;;;4993813;28;20073;-60
2023/05/23 08:20:29;;;;;;;17.65;4.82;;;;;;;;;;4995716;28;20044;-60
2023/05/23 08:23:02;;;;;;;15.07;3.40;;;;;;;;;;4994165;28;20046;-60
2023/05/23 08:25:32;;;;;;;15.10;4.35;;;;;;;;;;4996321;28;20049;-60
2023/05/23 08:27:58;;;;;;;15.40;3.35;;;;;;;;;;4995912;28;20081;-60
2023/05/23 08:30:25;;;;;;;16.65;4.35;;;;;;;;;;4993751;28;20041;-60
2023/05/23 08:32:52;;;;;;;19.92;4.47;;;;;;;;;;4994066;28;20805;-60
2023/05/23 08:35:18;;;;;;;16.08;4.05;;;;;;;;;;4994479;28;20048;-60
2023/05/23 08:37:48;;;;;;;16.33;4.78;;;;;;;;;;4974506;28;20154;-59
2023/05/23 08:40:24;;;;;;;15.98;3.63;;;;;;;;;;4991968;28;20144;-59
2023/05/23 08:42:50;;;;;;;18.38;3.85;;;;;;;;;;4995432;28;20104;-60
2023/05/23 08:45:17;;;;;;;19.83;4.03;;;;;;;;;;4992622;28;20048;-60
2023/05/23 08:47:43;;;;;;;13.07;3.50;;;;;;;;;;4995691;28;20099;-59
2023/05/23 08:50:14;;;;;;;16.05;4.47;;;;;;;;;;4994838;28;20388;-58
2023/05/23 08:52:55;;;;;;;17.15;4.30;;;;;;;;;;4995027;28;20046;-59
2023/05/23 08:55:21;;;;;;;13.65;4.03;;;;;;;;;;4995047;28;20412;-59
2023/05/23 08:57:47;;;;;;;20.13;4.07;;;;;;;;;;4995275;28;20037;-60
2023/05/23 09:00:15;;;;;;;10.18;3.40;;;;;;;;;;4992965;28;20208;-59
2023/05/23 09:02:44;;;;;;;11.93;3.80;;;;;;;;;;4995407;28;20042;-59
2023/05/23 09:05:11;;;;;;;14.10;3.25;;;;;;;;;;4995464;28;20042;-60
2023/05/23 09:07:37;;;;;;;16.60;4.05;;;;;;;;;;4995059;28;21119;-58
2023/05/23 09:10:04;;;;;;;19.30;4.30;;;;;;;;;;4992891;28;20903;-59
2023/05/23 09:12:32;;;;;;;15.07;4.00;;;;;;;;;;4993787;28;20037;-59
2023/05/23 09:14:58;;;;;;;15.50;3.85;;;;;;;;;;4991355;28;20045;-58
2023/05/23 09:17:24;;;;;;;16.95;4.50;;;;;;;;;;4993404;28;20033;-59
2023/05/23 09:19:51;;;;;;;14.55;4.53;;;;;;;;;;4989174;28;20066;-60
2023/05/23 09:22:23;;;;;;;17.02;3.92;;;;;;;;;;4994645;28;20041;-59
2023/05/23 09:24:51;;;;;;;15.32;4.47;;;;;;;;;;4993894;28;20049;-60
2023/05/23 09:27:17;;;;;;;16.48;4.40;;;;;;;;;;4995081;28;20042;-60
2023/05/23 09:29:46;;;;;;;15.48;3.72;;;;;;;;;;4976507;28;20601;-59
2023/05/23 09:32:14;;;;;;;14.18;3.83;;;;;;;;;;4993944;28;20045;-60
2023/05/23 09:34:41;;;;;;;15.45;4.43;;;;;;;;;;4994607;28;20078;-60
2023/05/23 09:37:07;;;;;;;16.60;3.70;;;;;;;;;;4993878;28;20111;-59
2023/05/23 09:39:37;;;;;;;15.65;4.13;;;;;;;;;;4984703;28;20112;-60
2023/05/23 09:42:03;;;;;;;11.57;3.20;;;;;;;;;;4987507;28;20145;-60
2023/05/23 09:44:29;;;;;;;11.43;3.42;;;;;;;;;;4992573;28;20538;-59
2023/05/23 09:46:57;;;;;;;16.70;3.72;;;16.10;99.90;;;;;;4989932;28;20046;-60
2023/05/23 09:49:26;;;;;;;13.07;3.25;;;;;;;;;;4993018;28;20357;-60
2023/05/23 09:51:59;;;;;;;18.85;3.45;;;;;;;;;;4990850;28;20103;-60
2023/05/23 09:54:25;;;;;;;15.20;4.18;;;15.30;99.90;;;;;;4995091;28;20045;-60
2023/05/23 09:56:52;;;;;;;15.57;3.95;;;;;;;;;;4994116;28;20091;-60
2023/05/23 09:59:23;;;;;;;11.05;3.60;;;15.40;99.90;;;;;;4987339;28;20037;-60
2023/05/23 10:01:51;;;;;;;18.10;5.25;;;;;;;;;;4993910;28;20423;-59
2023/05/23 10:04:24;;;;;;;13.80;3.92;;;;;;;;;;4976589;28;20046;-59
2023/05/23 10:06:52;;;;;;;15.35;3.65;;;;;;;;;;4985981;28;20073;-60
2023/05/23 10:09:19;;;;;;;12.43;3.47;;;;;;;;;;4992932;28;20112;-60
2023/05/23 10:12:03;;;;;;;11.45;3.00;;;;;;;;;;4994296;28;20046;-60
2023/05/23 10:14:30;;;;;;;16.52;4.60;;;;;;;;;;4993970;28;20042;-60
2023/05/23 10:17:07;;;;;;;13.60;4.10;;;;;;;;;;4992747;28;20053;-59
2023/05/23 10:19:43;;;;;;;15.98;4.22;;;;;;;;;;4989333;28;20154;-60
2023/05/23 10:22:11;;;;;;;18.27;3.67;;;15.60;99.90;;;;;;4993680;28;20038;-60
2023/05/23 10:24:37;;;;;;;20.63;4.10;;;;;;;;;;4993734;28;20052;-59
2023/05/23 10:27:04;;;;;;;15.10;4.63;;;;;;;;;;4992507;28;20050;-60
2023/05/23 10:29:32;;;;;;;11.15;3.03;;;;;;;;;;4991904;28;20053;-60
2023/05/23 10:32:01;;;;;;;16.15;3.80;;;;;;;;;;4997041;28;20042;-59
2023/05/23 10:34:33;;;;;;;15.95;4.28;;;;;;;;;;4997381;28;20042;-59
2023/05/23 10:37:00;;;;;;;13.65;3.72;;;;;;;;;;4996517;28;20038;-60
2023/05/23 10:39:29;;;;;;;16.23;3.58;;;;;;;;;;4988387;28;20050;-60
2023/05/23 10:41:58;;;;;;;11.43;3.70;;;;;;;;;;4994412;28;20049;-59
2023/05/23 10:44:30;;;;;;;12.65;3.30;;;;;;;;;;4997287;28;20037;-58
2023/05/23 10:46:57;;;;;;;17.77;3.13;;;;;;;;;;4997617;28;20387;-58
2023/05/23 10:49:46;;;;;;;12.45;3.50;;;;;;;;;;4995510;28;20037;-59
2023/05/23 10:52:13;;;;;;;14.57;3.15;;;;;;;;;;4993685;28;20068;-60
2023/05/23 10:54:50;;;;;;;13.13;3.05;;;;;;;;;;4995092;28;20515;-60
2023/05/23 10:57:17;;;;;;;13.07;3.55;;;;;;;;;;4996332;28;20049;-59
2023/05/23 10:59:44;;;;;;;15.85;3.70;;;;;;;;;;4986074;28;20447;-58
2023/05/23 11:02:14;;;;;;;13.68;4.85;;;;;;;;;;4996493;28;20144;-59
2023/05/23 11:04:41;;;;;;;14.55;3.63;;;;;;;;;;4997302;28;20046;-59
2023/05/23 11:07:27;;;;;;;13.68;3.85;;;;;;;;;;4996789;28;20252;-58
2023/05/23 11:10:03;;;;;;;16.73;3.88;;;;;;;;;;4995324;28;20046;-59
2023/05/23 11:12:41;;;;;;;14.15;3.88;;;;;;;;;;4994710;28;20042;-59
2023/05/23 11:15:22;;;;;;;10.80;3.65;;;;;;;;;;4990407;28;20045;-60
2023/05/23 11:17:53;;;;;;;15.30;4.63;;;;;;;;;;4996458;28;20057;-60
2023/05/23 11:20:24;;;;;;;13.07;3.92;;;;;;;;;;4994379;28;20467;-58
2023/05/23 11:23:08;;;;;;;10.20;3.83;;;;;;;;;;4996013;28;20144;-58
2023/05/23 11:25:41;;;;;;;12.00;3.88;;;;;;;;;;4995585;28;20060;-60
2023/05/23 11:28:07;;;;;;;15.10;4.60;;;;;;;;;;4994922;28;20045;-60
2023/05/23 11:30:36;;;;;;;13.70;3.55;;;;;;;;;;4993603;28;20045;-58
2023/05/23 11:33:07;;;;;;;11.05;3.38;;;;;;;;;;4991491;28;20042;-60
2023/05/23 11:35:33;;;;;;;16.40;4.00;;;;;;;;;;4995634;28;20053;-60
2023/05/23 11:37:59;;;;;;;10.27;2.63;;;;;;;;;;4996758;28;20065;-58
2023/05/23 11:40:33;;;;;;;13.07;3.00;;;;;;;;;;4991062;28;20286;-60
2023/05/23 11:43:00;;;;;;;13.93;3.22;;;;;;;;;;4985861;28;20455;-60
2023/05/23 11:45:28;;;;;;;15.20;3.85;;;;;;;;;;4996478;28;20042;-60
2023/05/23 11:47:54;;;;;;;12.23;3.65;;;16.30;10.50;;;;;;4995334;28;20053;-60
2023/05/23 11:50:20;;;;;;;15.80;4.10;;;;;;;;;;4993627;28;20047;-58
2023/05/23 11:52:50;;;;;;;12.52;3.42;;;;;;;;;;4991795;28;20120;-60
2023/05/23 11:55:20;;;;;;;12.20;3.10;;;;;;;;;;4990215;28;20126;-60
2023/05/23 11:57:46;;;;;;;10.82;2.92;;;;;;;;;;4977873;28;20046;-59
2023/05/23 12:00:12;;;;;;;11.85;3.10;;;;;;;;;;4987224;28;20046;-59
2023/05/23 12:02:42;;;;;;;11.20;2.88;;;;;;;;;;4994257;28;20048;-60
2023/05/23 12:05:17;;;;;;;14.07;3.63;;;;;;;;;;4996376;28;20034;-60
2023/05/23 12:07:45;;;;;;;14.30;3.83;;;;;;;;;;4989555;28;20136;-60
2023/05/23 12:10:11;;;;;;;12.00;3.67;;;;;;;;;;4994093;28;20053;-59
2023/05/23 12:12:37;;;;;;;10.07;3.28;;;16.60;1.00;;;;;;4995541;28;20050;-59
2023/05/23 12:15:04;;;;;;;11.73;2.63;;;;;;;;;;4994332;28;20060;-59
2023/05/23 12:17:30;;;;;;;13.57;2.85;;;;;;;;;;4995611;28;20427;-60
2023/05/23 12:19:56;;;;;;;9.13;2.80;;;;;;;;;;4994148;28;20053;-60
2023/05/23 12:22:25;;;;;;;15.43;3.40;;;;;;;;;;4995766;28;20041;-59
2023/05/23 12:24:55;;;;;;;16.40;3.75;;;;;;;;;;4994176;28;20038;-60
2023/05/23 12:27:35;;;;;;;14.32;3.67;;;;;;;;;;4995265;28;20041;-58
2023/05/23 12:30:13;;;;;;;14.27;3.17;;;;;;;;;;4994887;28;20610;-60
2023/05/23 12:32:40;;;;;;;15.60;3.22;;;;;;;;;;4995460;28;20052;-60
2023/05/23 12:35:12;;;;;;;13.20;2.80;;;20.10;1.00;;;;;;4993900;28;20134;-60
2023/05/23 12:37:41;;;;;;;10.90;3.40;;;;;;;;;;4995620;28;20049;-60
2023/05/23 12:40:15;;;;;;;9.52;2.92;;;;;;;;;;4990907;28;20456;-60
2023/05/23 12:42:56;;;;;;;9.60;2.40;;;22.90;1.00;;;;;;4988223;28;20404;-60
2023/05/23 12:45:22;;;;;;;14.95;3.92;;;;;;;;;;4996079;28;20140;-60
2023/05/23 12:47:48;;;;;;;11.70;3.05;;;22.90;1.00;;;;;;4993863;28;20056;-60
2023/05/23 12:50:14;;;;;;;9.25;2.90;;;;;;;;;;4994416;28;20037;-60
2023/05/23 12:52:40;;;;;;;10.93;3.20;;;23.10;1.00;;;;;;4976822;28;20084;-60
2023/05/23 12:55:07;;;;;;;14.82;3.58;;;23.90;1.00;;;;;;4994306;28;20125;-60
2023/05/23 12:57:34;;;;;;;10.85;3.08;;;24.50;1.00;;;;;;4993099;28;20060;-59
2023/05/23 13:00:00;;;;;;;10.35;2.90;;;25.40;1.00;;;;;;4994412;28;20545;-60
2023/05/23 13:02:27;;;;;;;8.50;2.35;;;27.70;99.90;;;;;;4994773;28;20062;-60
2023/05/23 13:04:53;;;;;;;10.40;3.08;;;29.20;99.90;;;;;;4995243;28;20407;-59
2023/05/23 13:07:18;;;;;;;11.07;2.40;;;28.50;99.90;;;;;;4991034;28;20045;-60
2023/05/23 13:09:44;;;;;;;10.00;2.88;;;28.60;99.90;;;;;;4995181;28;20041;-60
2023/05/23 13:12:11;;;;;;;10.45;3.53;;;28.80;99.90;;;;;;4995091;28;20465;-59
2023/05/23 13:14:37;;;;;;;9.25;2.83;;;28.80;99.90;;;;;;4993942;28;20053;-59
2023/05/23 13:17:03;;;;;;;12.27;3.00;;;28.00;99.90;;;;;;4983651;28;20045;-60
2023/05/23 13:19:28;;;;;;;9.50;3.33;;;28.60;99.90;;;;;;4993946;28;20538;-60
2023/05/23 13:21:54;;;;;;;13.00;3.08;;;26.20;99.90;;;;;;4994161;28;20479;-59
2023/05/23 13:24:20;;;;;;;9.90;2.58;;;26.60;99.90;;;;;;4994864;28;20041;-60
2023/05/23 13:26:46;;;;;;;9.48;3.08;;;26.50;99.90;;;;;;4993206;28;20129;-59
2023/05/23 13:29:11;;;;;;;7.95;2.67;;;26.80;99.90;;;;;;4993955;28;20072;-60
2023/05/23 13:31:37;;;;;;;13.30;3.35;;;26.90;99.90;;;;;;4994850;28;20492;-58
2023/05/23 13:34:03;;;;;;;10.85;2.90;;;27.60;99.90;;;;;;4986859;28;20034;-60
2023/05/23 13:36:29;;;;;;;9.45;3.05;;;29.70;99.90;;;;;;4995473;28;20116;-58
2023/05/23 13:38:54;;;;;;;13.02;3.50;;;26.70;99.90;;;;;;4994532;28;20034;-60
2023/05/23 13:41:20;;;;;;;14.07;3.25;;;26.30;99.90;;;;;;4993903;28;20139;-60
2023/05/23 13:43:46;;;;;;;9.95;3.28;;;27.70;99.90;;;;;;4989559;28;20088;-60
2023/05/23 13:46:12;;;;;;;8.93;2.17;;;28.80;99.90;;;;;;4995075;28;20033;-59
2023/05/23 13:48:39;;;;;;;13.07;3.50;;;29.20;99.90;;;;;;4994553;28;20609;-59
2023/05/23 13:51:05;;;;;;;11.88;3.42;;;28.50;99.90;;;;;;4994355;28;20050;-60
2023/05/23 13:53:31;;;;;;;8.50;2.58;;;28.20;99.90;;;;;;4994201;28;20070;-58
2023/05/23 13:55:56;;;;;;;11.40;2.50;;;29.70;99.90;;;;;;4992503;28;20030;-60
2023/05/23 13:58:22;;;;;;;12.02;2.80;;;29.50;99.90;;;;;;4989139;28;20037;-60
2023/05/23 14:00:48;;;;;;;11.90;3.10;;;29.30;99.90;;;;;;4993844;28;20038;-59
2023/05/23 14:03:14;;;;;;;12.40;3.03;;;29.10;99.90;;;;;;4992680;28;20247;-59
2023/05/23 14:05:40;;;;;;;9.77;2.45;;;28.50;99.90;;;;;;4993716;28;20042;-60
2023/05/23 14:08:20;;;;;;;10.30;2.63;;;29.20;99.90;;;;;;5058193;27;20426;-60
2023/05/23 14:10:45;;;;;;;8.80;2.20;;;29.80;99.90;;;;;;5054138;28;20194;-60
2023/05/23 14:13:11;;;;;;;10.23;2.40;;;30.10;99.90;;;;;;5055261;28;20530;-60
2023/05/23 14:15:37;;;;;;;10.23;2.83;;;28.20;99.90;;;;;;5046780;28;20281;-60